SBSG Informações do Aeroporto

Informações da Pista
Pista 12 Comprimento 9843 ft Largura 197 ft
Elevação 273 ft Limite 0 ft Heading 99
Pista 30 Comprimento 9843 ft Largura 197 ft
Elevação 264 ft Limite 0 ft Heading 279
Frequências do Aeroporto
Tipo ATIS Nome Frequência 127.6 MHZ
Tipo ILS Nome Frequência 109.7 MHZ
Tipo TWR Nome Frequência 118.2 MHZ
Navaids do Aeroporto
Informações meteorológicas do aeroporto e NOTAM
ADDS - METARS form results

(1944 UTC 24 March 2019)
Data provider http://aviationweather.gov/metar/data/
 
METAR text: SBSG 241900Z 12012KT 9999 FEW030 31/24 Q1010
Conditions at: SBSG (NATAL , BR) observed 1900 UTC 24 March 2019
Temperature: 31.0°C (88°F)
Dewpoint: 24.0°C (75°F) [RH = 66%]
Pressure (altimeter): 29.82 inches Hg (1010.0 mb)
Winds: from the ESE (120 degrees) at 14 MPH (12 knots; 6.2 m/s)
Visibility: 6 or more miles (10+ km)
Ceiling: at least 12,000 feet AGL
Clouds: few clouds at 3000 feet AGL
Weather: no significant weather observed at this time